Latest Weather Observations for Orbost

IDV60801

Issued at 6:52 am EST Monday 28 September 2020 (issued every 10 minutes, with the page automatically refreshed every 10 minutes)

About weather observations | Map of weather stations | Latest weather observations for VIC | Other Formats
Station Details ID: 084145 Name: ORBOST Lat: -37.69 Lon: 148.47 Height: 62.65 m
Data from the previous 72 hours. | See also: Recent months at Orbost
Date/Time
EST
Temp
°C
App
Temp
°C
Dew
Point
°C
Rel
Hum
%
Delta-T
°C
Wind Press
QNH
hPa
Press
MSL
hPa
Rain since
9am
mm
Dir  Spd
km/h
Gust
km/h
Spd
kts
Gust
kts
28/06:30am 7.3 4.4 2.8 73 1.9 WNW 7 11 4 6 1028.0 1028.0 0.0
28/06:00am 7.1 4.4 2.6 73 1.9 WNW 6 9 3 5 1027.8 1027.8 0.0
28/05:30am 7.0 4.1 2.5 73 1.9 NW 7 9 4 5 1027.5 1027.5 0.0
28/05:00am 7.0 4.0 2.3 72 1.9 WNW 7 9 4 5 1027.3 1027.3 0.0
28/04:30am 7.3 4.0 2.2 70 2.1 WNW 9 13 5 7 1027.1 1027.1 0.0
28/04:00am 7.0 4.0 2.1 71 2.0 NW 7 11 4 6 1027.0 1027.0 0.0
28/03:30am 7.2 4.2 2.1 70 2.1 WNW 7 13 4 7 1026.9 1026.9 0.0
28/03:00am 7.5 4.2 2.2 69 2.2 NW 9 11 5 6 1026.9 1026.9 0.0
28/02:30am 7.5 4.2 2.4 70 2.1 NW 9 17 5 9 1026.9 1026.9 0.0
28/02:00am 7.4 4.1 2.5 71 2.0 NW 9 15 5 8 1027.0 1027.0 0.0
28/01:30am 7.2 3.9 2.3 71 2.0 NW 9 13 5 7 1027.0 1027.0 0.0
28/01:00am 7.5 4.2 2.2 69 2.2 NW 9 15 5 8 1027.1 1027.1 0.0
28/12:30am 7.8 4.6 3.1 72 2.0 NW 9 13 5 7 1027.2 1027.2 0.0
28/12:00am 8.2 5.2 4.0 75 1.8 NW 9 15 5 8 1027.3 1027.3 0.0
 
Date/Time
EST
Temp
°C
App
Temp
°C
Dew
Point
°C
Rel
Hum
%
Delta-T
°C
Wind Press
QNH
hPa
Press
MSL
hPa
Rain since
9am
mm
Dir  Spd
km/h
Gust
km/h
Spd
kts
Gust
kts
27/11:30pm 7.3 4.6 3.9 79 1.5 NW 7 11 4 6 1027.3 1027.3 0.0
27/11:00pm 7.0 4.5 3.6 79 1.4 WNW 6 9 3 5 1027.4 1027.4 0.0
27/10:30pm 7.5 4.9 4.3 80 1.4 WNW 7 9 4 5 1027.4 1027.4 0.0
27/10:00pm 7.9 5.4 4.5 79 1.5 WNW 7 11 4 6 1027.4 1027.4 0.0
27/09:30pm 8.3 5.9 4.1 75 1.8 NW 6 9 3 5 1027.3 1027.3 0.0
27/09:00pm 8.2 5.9 4.6 78 1.6 NW 6 7 3 4 1027.3 1027.3 0.0
27/08:30pm 7.5 5.4 3.7 77 1.6 NNW 4 6 2 3 1027.0 1027.0 0.0
27/08:00pm 7.7 5.5 3.6 75 1.7 NW 4 4 2 2 1026.8 1026.8 0.0
27/07:30pm 8.1 5.9 3.6 73 1.9 NW 4 4 2 2 1026.6 1026.6 0.0
27/07:00pm 8.3 6.1 3.4 71 2.1 NW 4 6 2 3 1026.3 1026.3 0.0
27/06:30pm 8.7 6.9 3.5 70 2.2 WNW 2 4 1 2 1026.0 1026.0 0.0
27/06:00pm 9.6 6.5 3.6 66 2.6 SW 9 17 5 9 1025.6 1025.6 0.0
27/05:30pm 10.6 7.2 3.9 63 3.0 SW 11 19 6 10 1025.3 1025.3 0.0
27/05:00pm 11.1 6.5 3.9 61 3.2 SW 17 22 9 12 1025.1 1025.1 0.0
27/04:30pm 11.5 6.8 3.3 57 3.6 SSW 17 24 9 13 1024.7 1024.7 0.0
27/04:00pm 12.2 7.7 4.2 58 3.6 SW 17 24 9 13 1024.5 1024.5 0.0
27/03:30pm 12.4 7.5 4.1 57 3.8 SW 19 26 10 14 1024.4 1024.4 0.0
27/03:00pm 12.3 7.6 3.3 54 4.0 SSW 17 26 9 14 1024.2 1024.2 0.0
27/02:30pm 12.6 8.7 3.6 54 4.0 SW 13 30 7 16 1024.2 1024.2 0.0
27/02:00pm 13.0 8.4 3.9 54 4.1 SW 17 26 9 14 1024.2 1024.2 0.0
27/01:30pm 12.7 7.5 3.4 53 4.2 SW 20 30 11 16 1024.3 1024.3 0.0
27/01:00pm 12.2 7.0 3.7 56 3.8 SW 20 30 11 16 1024.6 1024.6 0.0
27/12:30pm 13.0 7.7 5.2 59 3.6 SW 22 33 12 18 1024.7 1024.7 0.0
27/12:00pm 11.6 5.7 3.9 59 3.4 SW 24 35 13 19 1024.7 1024.7 0.0
27/11:30am 12.0 6.2 4.2 59 3.5 SW 24 35 13 19 1024.5 1024.5 0.0
27/11:00am 12.4 6.4 3.6 55 3.9 SW 24 32 13 17 1024.5 1024.5 0.0
27/10:30am 12.2 7.2 4.7 60 3.4 SW 20 30 11 16 1024.3 1024.3 0.0
27/10:00am 11.2 6.4 4.4 63 3.0 WSW 19 30 10 16 1024.2 1024.2 0.0
27/09:30am 10.3 5.1 3.6 63 2.9 WSW 20 37 11 20 1024.1 1024.1 0.0
27/09:00am 10.5 6.5 5.1 69 2.4 WSW 15 24 8 13 1023.4 1023.5 5.0
27/08:30am 9.8 5.9 5.4 74 2.0 W 15 24 8 13 1023.1 1023.2 5.0
27/08:00am 9.2 5.4 5.6 78 1.6 W 15 24 8 13 1022.6 1022.7 5.0
27/07:30am 8.5 5.1 5.8 83 1.2 W 13 19 7 10 1022.3 1022.4 5.0
27/07:00am 7.5 3.3 5.5 87 0.9 W 17 28 9 15 1021.7 1021.8 5.0
27/06:30am 7.7 4.1 5.0 83 1.2 W 13 20 7 11 1020.9 1020.9 4.6
27/06:00am 7.7 4.3 5.7 87 0.9 WNW 13 19 7 10 1020.2 1020.2 4.6
27/05:30am 7.5 4.4 5.6 88 0.9 WNW 11 19 6 10 1019.6 1019.6 4.4
27/05:00am 7.6 4.6 6.1 90 0.7 WNW 11 20 6 11 1019.1 1019.1 4.4
27/04:30am 7.6 4.3 6.2 91 0.6 W 13 22 7 12 1018.4 1018.4 4.2
27/04:00am 8.1 4.4 6.2 88 0.9 W 15 22 8 12 1017.7 1017.7 3.8
27/03:30am 8.2 4.9 6.3 88 0.9 W 13 20 7 11 1017.2 1017.2 3.6
27/03:00am 8.3 3.8 6.3 87 0.9 W 19 26 10 14 1017.0 1017.0 3.6
27/02:30am 8.5 3.9 6.5 87 0.9 W 20 32 11 17 1016.6 1016.6 3.6
27/02:00am 8.9 5.0 5.5 79 1.5 WNW 15 24 8 13 1016.1 1016.1 3.4
27/01:30am 9.0 4.7 5.2 77 1.7 W 17 26 9 14 1016.2 1016.2 3.4
27/01:00am 9.2 4.6 5.8 79 1.6 W 19 28 10 15 1016.0 1016.0 3.4
27/12:30am 9.0 4.3 6.1 82 1.3 W 20 32 11 17 1016.0 1016.0 3.4
27/12:00am 9.8 4.2 5.4 74 2.0 W 24 39 13 21 1015.8 1015.8 3.4
 
Date/Time
EST
Temp
°C
App
Temp
°C
Dew
Point
°C
Rel
Hum
%
Delta-T
°C
Wind Press
QNH
hPa
Press
MSL
hPa
Rain since
9am
mm
Dir  Spd
km/h
Gust
km/h
Spd
kts
Gust
kts
26/11:30pm 10.1 5.2 4.9 70 2.3 W 20 39 11 21 1015.4 1015.4 3.4
26/11:00pm 10.2 4.8 4.6 68 2.5 W 22 39 12 21 1015.3 1015.3 3.4
26/10:30pm 10.3 5.3 4.7 68 2.5 W 20 33 11 18 1015.3 1015.3 3.4
26/10:00pm 10.4 4.6 4.5 67 2.6 W 24 39 13 21 1015.0 1015.0 3.4
26/09:30pm 10.3 5.5 4.5 67 2.6 W 19 33 10 18 1014.8 1014.8 3.4
26/09:00pm 10.2 6.1 4.4 67 2.6 W 15 24 8 13 1014.7 1014.7 3.4
26/08:30pm 10.6 5.5 4.3 65 2.8 W 20 35 11 19 1014.5 1014.5 3.4
26/08:00pm 10.5 5.5 3.8 63 3.0 W 19 35 10 19 1014.2 1014.2 3.4
26/07:30pm 10.6 5.6 3.6 62 3.1 W 19 30 10 16 1013.8 1013.8 3.4
26/07:00pm 10.2 6.3 3.5 63 2.9 W 13 22 7 12 1013.3 1013.3 3.4
26/06:30pm 10.9 5.9 3.5 60 3.3 WNW 19 30 10 16 1012.7 1012.7 3.4
26/06:00pm 10.7 6.4 3.5 61 3.2 W 15 24 8 13 1012.2 1012.2 3.4
26/05:30pm 11.6 6.4 3.6 58 3.6 W 20 35 11 19 1011.8 1011.8 3.4
26/05:00pm 12.2 7.0 3.4 55 3.9 W 20 30 11 16 1011.3 1011.3 3.4
26/04:45pm 12.1 5.4 3.9 57 3.7 W 28 46 15 25 1011.0 1011.0 3.4
26/04:30pm 12.5 7.6 5.0 60 3.5 W 20 35 11 19 1010.8 1010.8 3.4
26/04:03pm 12.9 6.1 3.0 51 4.4 W 28 48 15 26 1010.5 1010.5 3.4
26/04:00pm 12.6 6.2 3.0 52 4.3 W 26 39 14 21 1010.5 1010.5 3.4
26/03:30pm 13.5 6.1 1.8 45 5.1 W 30 52 16 28 1010.2 1010.2 3.4
26/03:26pm 13.6 5.8 1.9 45 5.1 WSW 32 52 17 28 1010.1 1010.1 3.4
26/03:00pm 12.9 5.0 2.5 49 4.6 WSW 33 50 18 27 1010.1 1010.1 3.4
26/02:37pm 12.6 6.0 4.1 56 3.9 W 28 52 15 28 1009.9 1009.9 3.4
26/02:30pm 12.1 6.0 4.6 60 3.4 WSW 26 41 14 22 1009.9 1009.9 3.4
26/02:00pm 13.2 6.9 5.6 60 3.6 W 28 39 15 21 1009.6 1009.6 3.4
26/01:30pm 11.1 6.4 7.8 80 1.6 WSW 22 35 12 19 1009.9 1009.9 3.4
26/01:00pm 11.0 5.7 6.9 76 2.0 W 24 56 13 30 1009.9 1009.9 2.8
26/12:30pm 10.8 6.0 7.5 80 1.6 WSW 22 41 12 22 1009.5 1009.5 2.8
26/12:00pm 11.2 7.3 8.6 84 1.3 SW 19 35 10 19 1009.2 1009.2 1.0
26/11:30am 10.1 5.2 8.4 89 0.8 WSW 24 46 13 25 1009.2 1009.2 1.0
26/11:00am 9.8 7.0 8.7 93 0.5 WNW 13 20 7 11 1009.0 1009.0 0.8
26/10:30am 9.3 5.0 6.9 85 1.1 WNW 19 32 10 17 1008.7 1008.7 0.2
26/10:00am 10.4 5.3 5.8 73 2.1 W 22 39 12 21 1008.2 1008.2 0.0
26/09:30am 10.8 5.1 4.7 66 2.8 W 24 37 13 20 1007.7 1007.6 0.0
26/09:00am 10.4 4.9 4.1 65 2.8 W 22 33 12 18 1007.2 1007.2 4.6
26/08:30am 10.4 5.3 3.9 64 2.9 WNW 20 30 11 16 1006.8 1006.8 4.6
26/08:00am 9.8 4.3 1.9 58 3.3 WNW 20 39 11 21 1006.0 1006.0 4.6
26/07:30am 9.4 4.4 1.3 57 3.3 WNW 17 28 9 15 1005.3 1005.3 4.6
26/07:00am 8.8 3.3 0.3 55 3.4 NW 19 32 10 17 1004.6 1004.6 4.6
26/06:30am 8.4 3.2 -0.1 55 3.4 NW 17 22 9 12 1004.4 1004.4 4.6
26/06:00am 8.7 3.4 -0.3 53 3.6 NW 17 24 9 13 1003.7 1003.7 4.6
26/05:30am 8.4 3.6 0.1 56 3.3 WNW 15 28 8 15 1003.4 1003.4 4.6
26/05:00am 8.5 2.7 0.0 55 3.4 WNW 20 33 11 18 1002.9 1002.9 4.6
26/04:30am 8.4 3.2 0.4 57 3.2 WNW 17 30 9 16 1002.6 1002.6 4.6
26/04:00am 8.2 3.5 0.7 59 3.0 WNW 15 24 8 13 1002.3 1002.3 4.6
26/03:30am 7.9 2.9 1.3 63 2.7 WNW 17 24 9 13 1002.1 1002.1 4.6
26/03:00am 7.9 2.9 1.5 64 2.6 WNW 17 26 9 14 1001.9 1001.9 4.6
26/02:30am 7.8 2.9 1.9 66 2.4 WNW 17 28 9 15 1001.8 1001.8 4.6
26/02:00am 7.6 2.8 2.5 70 2.1 WNW 17 28 9 15 1001.9 1001.9 4.6
26/01:30am 7.5 2.4 3.2 74 1.8 WNW 19 33 10 18 1002.0 1002.0 4.6
26/01:00am 7.6 2.6 3.6 76 1.7 WNW 19 28 10 15 1002.3 1002.3 4.6
26/12:30am 7.3 2.4 4.3 81 1.3 WNW 19 26 10 14 1002.3 1002.3 4.6
26/12:00am 6.8 2.0 4.8 87 0.9 WNW 19 28 10 15 1002.2 1002.2 4.6
 
Date/Time
EST
Temp
°C
App
Temp
°C
Dew
Point
°C
Rel
Hum
%
Delta-T
°C
Wind Press
QNH
hPa
Press
MSL
hPa
Rain since
9am
mm
Dir  Spd
km/h
Gust
km/h
Spd
kts
Gust
kts
25/11:30pm 6.3 1.6 5.3 93 0.4 WNW 19 32 10 17 1002.1 1002.1 4.6
25/11:00pm 6.7 1.8 5.2 90 0.7 WNW 20 33 11 18 1002.3 1002.3 4.0
25/10:30pm 7.4 1.3 4.9 84 1.1 W 26 39 14 21 1002.2 1002.2 3.8
25/10:00pm 7.5 4.9 6.0 90 0.7 WNW 9 13 5 7 1002.1 1002.1 3.8
25/09:30pm 7.3 4.9 5.4 88 0.8 NNW 7 11 4 6 1002.0 1002.0 3.8
25/09:00pm 7.5 4.4 5.6 88 0.9 N 11 13 6 7 1001.9 1001.9 3.8
25/08:30pm 7.9 4.9 5.9 87 0.9 NW 11 15 6 8 1001.8 1001.8 3.8
25/08:00pm 7.6 4.9 5.7 88 0.9 NW 9 11 5 6 1001.7 1001.7 3.8
25/07:30pm 7.6 5.0 6.1 90 0.7 NW 9 15 5 8 1001.5 1001.5 3.8
25/07:00pm 7.7 4.9 6.8 94 0.4 WNW 11 17 6 9 1001.7 1001.7 3.4
25/06:30pm 8.1 6.1 6.9 92 0.6 W 7 11 4 6 1001.3 1001.3 2.8
25/06:00pm 8.5 6.5 7.1 91 0.7 W 7 11 4 6 1000.7 1000.7 2.2
25/05:30pm 8.9 5.7 6.9 87 0.9 WSW 13 20 7 11 1000.2 1000.2 1.8
25/05:00pm 9.2 7.4 7.2 87 1.0 NW 6 11 3 6 999.6 999.6 1.4
25/04:30pm 9.3 7.3 7.1 86 1.0 WNW 7 11 4 6 999.1 999.1 1.4
25/04:00pm 10.6 7.0 6.6 76 1.9 WNW 15 26 8 14 998.7 998.7 0.6
25/03:30pm 12.0 9.2 7.1 72 2.4 W 11 19 6 10 998.1 998.1 0.4
25/03:00pm 12.9 9.5 7.8 71 2.5 SW 15 24 8 13 997.9 997.9 0.4
25/02:30pm 13.0 8.6 6.6 65 3.1 SW 19 24 10 13 997.9 997.9 0.4
25/02:00pm 14.5 10.8 6.3 58 4.0 WSW 15 24 8 13 997.9 997.9 0.4
25/01:30pm 15.3 12.4 6.3 55 4.4 W 11 26 6 14 998.2 998.2 0.4
25/01:00pm 13.6 12.0 6.5 62 3.4 SW 4 13 2 7 998.6 998.6 0.4
25/12:30pm 13.2 11.2 7.0 66 3.0 W 7 13 4 7 999.4 999.4 0.4
25/12:00pm 12.3 10.6 7.4 72 2.4 WNW 6 9 3 5 1000.3 1000.3 0.4
25/11:30am 11.6 9.9 7.7 77 1.9 WNW 6 7 3 4 1000.4 1000.4 0.4
25/11:00am 10.8 9.7 6.7 76 2.0 W 2 6 1 3 1000.7 1000.7 0.4
25/10:30am 10.3 9.3 7.5 83 1.3 S 2 4 1 2 1000.8 1000.8 0.4
25/10:00am 8.9 7.5 7.4 90 0.7 SW 4 6 2 3 1001.4 1001.4 0.2
25/09:30am 9.2 7.8 7.3 88 0.9 S 4 9 2 5 1001.7 1001.7 0.2
25/09:00am 9.3 8.4 7.6 89 0.8 N 2 7 1 4 1001.8 1001.8 0.2
25/08:30am 8.2 7.4 6.3 88 0.9 CALM 0 2 0 1 1002.1 1002.1 0.0
25/08:00am 8.7 7.4 7.5 92 0.6 E 4 7 2 4 1002.2 1002.2 0.0
25/07:30am 6.5 5.1 5.5 93 0.4 SE 2 9 1 5 1002.9 1002.9 0.0
25/07:00am 6.2 5.0 4.4 88 0.8 CALM 0 2 0 1 1002.9 1002.9 0.0

Other formats

Comma delimited format used in spreadsheet applications
http://www.bom.gov.au/fwo/IDV60801/IDV60801.95918.axf

JavaScript Object Notation format (JSON) in row-major order
http://www.bom.gov.au/fwo/IDV60801/IDV60801.95918.json

Data quality

Most of these data are generated automatically and are frequently updated. Quality checks on data are not normally performed. It is possible for incorrect values to appear. Refer to information at About Latest Weather Observations and please check the disclaimer before using these data.